sensor_id;sensor_type;location;lat;lon;timestamp;temperature;humidity
21944;DHT22;11136;48.778;9.126;2023-04-24T00:01:47;12.80;99.90
21944;DHT22;11136;48.778;9.126;2023-04-24T00:04:13;12.80;99.90
21944;DHT22;11136;48.778;9.126;2023-04-24T00:06:42;12.70;99.90
21944;DHT22;11136;48.778;9.126;2023-04-24T00:09:09;12.70;99.90
21944;DHT22;11136;48.778;9.126;2023-04-24T00:11:35;12.70;99.90
21944;DHT22;11136;48.778;9.126;2023-04-24T00:14:01;12.70;99.90
21944;DHT22;11136;48.778;9.126;2023-04-24T00:16:26;12.70;99.90
21944;DHT22;11136;48.778;9.126;2023-04-24T00:18:53;12.70;99.90
21944;DHT22;11136;48.778;9.126;2023-04-24T00:21:19;12.70;99.90
21944;DHT22;11136;48.778;9.126;2023-04-24T00:23:47;12.70;99.90
21944;DHT22;11136;48.778;9.126;2023-04-24T00:26:13;12.70;99.90
21944;DHT22;11136;48.778;9.126;2023-04-24T00:28:39;12.70;99.90
21944;DHT22;11136;48.778;9.126;2023-04-24T00:31:05;12.70;99.90
21944;DHT22;11136;48.778;9.126;2023-04-24T00:33:31;12.70;99.90
21944;DHT22;11136;48.778;9.126;2023-04-24T00:35:57;12.70;99.90
21944;DHT22;11136;48.778;9.126;2023-04-24T00:38:22;12.80;99.90
21944;DHT22;11136;48.778;9.126;2023-04-24T00:40:49;12.70;99.90
21944;DHT22;11136;48.778;9.126;2023-04-24T00:43:19;12.80;99.90
21944;DHT22;11136;48.778;9.126;2023-04-24T00:45:46;12.80;99.90
21944;DHT22;11136;48.778;9.126;2023-04-24T00:48:11;13.10;99.90
21944;DHT22;11136;48.778;9.126;2023-04-24T00:50:38;12.80;99.90
21944;DHT22;11136;48.778;9.126;2023-04-24T00:53:04;12.90;99.90
21944;DHT22;11136;48.778;9.126;2023-04-24T00:55:30;12.80;99.90
21944;DHT22;11136;48.778;9.126;2023-04-24T00:57:55;12.90;99.90
21944;DHT22;11136;48.778;9.126;2023-04-24T01:00:21;12.80;99.90
21944;DHT22;11136;48.778;9.126;2023-04-24T01:02:48;12.80;99.90
21944;DHT22;11136;48.778;9.126;2023-04-24T01:05:14;12.80;99.90
21944;DHT22;11136;48.778;9.126;2023-04-24T01:07:44;12.80;99.90
21944;DHT22;11136;48.778;9.126;2023-04-24T01:10:11;12.90;99.90
21944;DHT22;11136;48.778;9.126;2023-04-24T01:12:39;12.80;99.90
21944;DHT22;11136;48.778;9.126;2023-04-24T01:15:05;12.90;99.90
21944;DHT22;11136;48.778;9.126;2023-04-24T01:17:32;12.90;99.90
21944;DHT22;11136;48.778;9.126;2023-04-24T01:20:00;12.90;99.90
21944;DHT22;11136;48.778;9.126;2023-04-24T01:22:26;12.90;99.90
21944;DHT22;11136;48.778;9.126;2023-04-24T01:24:52;12.90;99.90
21944;DHT22;11136;48.778;9.126;2023-04-24T01:27:19;13.00;99.90
21944;DHT22;11136;48.778;9.126;2023-04-24T01:29:45;13.00;99.90
21944;DHT22;11136;48.778;9.126;2023-04-24T01:32:13;13.00;99.90
21944;DHT22;11136;48.778;9.126;2023-04-24T01:34:40;13.00;99.90
21944;DHT22;11136;48.778;9.126;2023-04-24T01:37:06;13.00;99.90
21944;DHT22;11136;48.778;9.126;2023-04-24T01:39:35;13.20;99.90
21944;DHT22;11136;48.778;9.126;2023-04-24T01:42:00;13.00;99.90
21944;DHT22;11136;48.778;9.126;2023-04-24T01:44:29;13.00;99.90
21944;DHT22;11136;48.778;9.126;2023-04-24T01:46:55;13.00;99.90
21944;DHT22;11136;48.778;9.126;2023-04-24T01:49:22;13.00;99.90
21944;DHT22;11136;48.778;9.126;2023-04-24T01:51:49;13.00;99.90
21944;DHT22;11136;48.778;9.126;2023-04-24T01:54:15;13.00;99.90
21944;DHT22;11136;48.778;9.126;2023-04-24T01:56:42;13.00;99.90
21944;DHT22;11136;48.778;9.126;2023-04-24T01:59:10;12.90;99.90
21944;DHT22;11136;48.778;9.126;2023-04-24T02:01:36;12.90;99.90
21944;DHT22;11136;48.778;9.126;2023-04-24T02:04:03;12.90;99.90
21944;DHT22;11136;48.778;9.126;2023-04-24T02:06:28;12.90;99.90
21944;DHT22;11136;48.778;9.126;2023-04-24T02:08:54;12.90;99.90
21944;DHT22;11136;48.778;9.126;2023-04-24T02:11:20;12.90;99.90
21944;DHT22;11136;48.778;9.126;2023-04-24T02:13:45;12.90;99.90
21944;DHT22;11136;48.778;9.126;2023-04-24T02:16:11;12.90;99.90
21944;DHT22;11136;48.778;9.126;2023-04-24T02:18:37;12.90;99.90
21944;DHT22;11136;48.778;9.126;2023-04-24T02:21:04;12.90;99.90
21944;DHT22;11136;48.778;9.126;2023-04-24T02:23:32;12.90;99.90
21944;DHT22;11136;48.778;9.126;2023-04-24T02:25:58;12.90;99.90
21944;DHT22;11136;48.778;9.126;2023-04-24T02:28:23;12.90;99.90
21944;DHT22;11136;48.778;9.126;2023-04-24T02:30:50;12.90;99.90
21944;DHT22;11136;48.778;9.126;2023-04-24T02:33:15;12.90;99.90
21944;DHT22;11136;48.778;9.126;2023-04-24T02:35:41;12.90;99.90
21944;DHT22;11136;48.778;9.126;2023-04-24T02:38:07;12.90;99.90
21944;DHT22;11136;48.778;9.126;2023-04-24T02:40:32;12.80;99.90
21944;DHT22;11136;48.778;9.126;2023-04-24T02:42:58;12.90;99.90
21944;DHT22;11136;48.778;9.126;2023-04-24T02:45:23;12.90;99.90
21944;DHT22;11136;48.778;9.126;2023-04-24T02:47:49;12.90;99.90
21944;DHT22;11136;48.778;9.126;2023-04-24T02:50:15;12.80;99.90
21944;DHT22;11136;48.778;9.126;2023-04-24T02:52:40;12.90;99.90
21944;DHT22;11136;48.778;9.126;2023-04-24T02:55:06;12.80;99.90
21944;DHT22;11136;48.778;9.126;2023-04-24T02:57:33;12.90;99.90
21944;DHT22;11136;48.778;9.126;2023-04-24T02:59:59;12.80;99.90
21944;DHT22;11136;48.778;9.126;2023-04-24T03:02:25;12.90;99.90
21944;DHT22;11136;48.778;9.126;2023-04-24T03:04:50;12.80;99.90
21944;DHT22;11136;48.778;9.126;2023-04-24T03:07:16;12.80;99.90
21944;DHT22;11136;48.778;9.126;2023-04-24T03:09:42;12.90;99.90
21944;DHT22;11136;48.778;9.126;2023-04-24T03:12:07;12.90;99.90
21944;DHT22;11136;48.778;9.126;2023-04-24T03:14:34;12.80;99.90
21944;DHT22;11136;48.778;9.126;2023-04-24T03:17:00;13.20;99.90
21944;DHT22;11136;48.778;9.126;2023-04-24T03:19:26;12.80;99.90
21944;DHT22;11136;48.778;9.126;2023-04-24T03:21:53;12.80;99.90
21944;DHT22;11136;48.778;9.126;2023-04-24T03:24:20;12.80;99.90
21944;DHT22;11136;48.778;9.126;2023-04-24T03:26:46;12.80;99.90
21944;DHT22;11136;48.778;9.126;2023-04-24T03:29:12;12.70;99.90
21944;DHT22;11136;48.778;9.126;2023-04-24T03:31:38;12.70;99.90
21944;DHT22;11136;48.778;9.126;2023-04-24T03:34:04;12.80;99.90
21944;DHT22;11136;48.778;9.126;2023-04-24T03:36:29;12.70;99.90
21944;DHT22;11136;48.778;9.126;2023-04-24T03:38:55;12.80;99.90
21944;DHT22;11136;48.778;9.126;2023-04-24T03:41:21;12.70;99.90
21944;DHT22;11136;48.778;9.126;2023-04-24T03:43:47;12.70;99.90
21944;DHT22;11136;48.778;9.126;2023-04-24T03:46:13;12.70;99.90
21944;DHT22;11136;48.778;9.126;2023-04-24T03:48:40;12.70;99.90
21944;DHT22;11136;48.778;9.126;2023-04-24T03:51:05;12.70;99.90
21944;DHT22;11136;48.778;9.126;2023-04-24T03:53:31;12.70;99.90
21944;DHT22;11136;48.778;9.126;2023-04-24T03:55:57;12.70;99.90
21944;DHT22;11136;48.778;9.126;2023-04-24T03:58:23;12.60;99.90
21944;DHT22;11136;48.778;9.126;2023-04-24T04:00:49;12.60;99.90
21944;DHT22;11136;48.778;9.126;2023-04-24T04:03:15;12.50;99.90
21944;DHT22;11136;48.778;9.126;2023-04-24T04:05:41;12.50;99.90
21944;DHT22;11136;48.778;9.126;2023-04-24T04:08:07;12.50;99.90
21944;DHT22;11136;48.778;9.126;2023-04-24T04:10:33;12.50;99.90
21944;DHT22;11136;48.778;9.126;2023-04-24T04:12:58;12.50;99.90
21944;DHT22;11136;48.778;9.126;2023-04-24T04:15:24;12.50;99.90
21944;DHT22;11136;48.778;9.126;2023-04-24T04:17:49;12.50;99.90
21944;DHT22;11136;48.778;9.126;2023-04-24T04:20:15;12.50;99.90
21944;DHT22;11136;48.778;9.126;2023-04-24T04:22:41;12.50;99.90
21944;DHT22;11136;48.778;9.126;2023-04-24T04:25:06;12.50;99.90
21944;DHT22;11136;48.778;9.126;2023-04-24T04:27:33;12.60;99.90
21944;DHT22;11136;48.778;9.126;2023-04-24T04:30:00;12.50;99.90
21944;DHT22;11136;48.778;9.126;2023-04-24T04:32:32;12.50;99.90
21944;DHT22;11136;48.778;9.126;2023-04-24T04:35:00;12.40;99.90
21944;DHT22;11136;48.778;9.126;2023-04-24T04:37:29;12.40;99.90
21944;DHT22;11136;48.778;9.126;2023-04-24T04:39:57;12.30;99.90
21944;DHT22;11136;48.778;9.126;2023-04-24T04:42:26;12.30;99.90
21944;DHT22;11136;48.778;9.126;2023-04-24T04:44:55;12.20;99.90
21944;DHT22;11136;48.778;9.126;2023-04-24T04:47:23;12.10;99.90
21944;DHT22;11136;48.778;9.126;2023-04-24T04:49:50;12.00;99.90
21944;DHT22;11136;48.778;9.126;2023-04-24T04:52:19;11.90;99.90
21944;DHT22;11136;48.778;9.126;2023-04-24T04:54:45;11.80;99.90
21944;DHT22;11136;48.778;9.126;2023-04-24T04:57:11;11.80;99.90
21944;DHT22;11136;48.778;9.126;2023-04-24T04:59:37;11.70;99.90
21944;DHT22;11136;48.778;9.126;2023-04-24T05:02:03;11.70;99.90
21944;DHT22;11136;48.778;9.126;2023-04-24T05:04:28;11.60;99.90
21944;DHT22;11136;48.778;9.126;2023-04-24T05:06:54;11.60;99.90
21944;DHT22;11136;48.778;9.126;2023-04-24T05:09:20;11.60;99.90
21944;DHT22;11136;48.778;9.126;2023-04-24T05:11:45;11.60;99.90
21944;DHT22;11136;48.778;9.126;2023-04-24T05:14:11;11.60;99.90
21944;DHT22;11136;48.778;9.126;2023-04-24T05:16:38;11.70;99.90
21944;DHT22;11136;48.778;9.126;2023-04-24T05:19:04;11.60;99.90
21944;DHT22;11136;48.778;9.126;2023-04-24T05:21:31;11.60;99.90
21944;DHT22;11136;48.778;9.126;2023-04-24T05:23:58;11.60;99.90
21944;DHT22;11136;48.778;9.126;2023-04-24T05:26:24;11.70;99.90
21944;DHT22;11136;48.778;9.126;2023-04-24T05:28:50;11.70;99.90
21944;DHT22;11136;48.778;9.126;2023-04-24T05:31:16;11.70;99.90
21944;DHT22;11136;48.778;9.126;2023-04-24T05:33:43;11.70;99.90
21944;DHT22;11136;48.778;9.126;2023-04-24T05:36:09;11.60;99.90
21944;DHT22;11136;48.778;9.126;2023-04-24T05:38:35;11.70;99.90
21944;DHT22;11136;48.778;9.126;2023-04-24T05:41:01;11.60;99.90
21944;DHT22;11136;48.778;9.126;2023-04-24T05:43:26;11.60;99.90
21944;DHT22;11136;48.778;9.126;2023-04-24T05:45:52;11.60;99.90
21944;DHT22;11136;48.778;9.126;2023-04-24T05:48:18;11.60;99.90
21944;DHT22;11136;48.778;9.126;2023-04-24T05:50:44;11.70;99.90
21944;DHT22;11136;48.778;9.126;2023-04-24T05:53:12;11.70;99.90
21944;DHT22;11136;48.778;9.126;2023-04-24T05:55:38;11.70;99.90
21944;DHT22;11136;48.778;9.126;2023-04-24T05:58:05;11.70;99.90
21944;DHT22;11136;48.778;9.126;2023-04-24T06:00:31;11.80;99.90
21944;DHT22;11136;48.778;9.126;2023-04-24T06:03:00;11.80;99.90
21944;DHT22;11136;48.778;9.126;2023-04-24T06:05:27;11.80;99.90
21944;DHT22;11136;48.778;9.126;2023-04-24T06:07:52;11.80;99.90
21944;DHT22;11136;48.778;9.126;2023-04-24T06:10:18;11.80;99.90
21944;DHT22;11136;48.778;9.126;2023-04-24T06:12:44;11.80;99.90
21944;DHT22;11136;48.778;9.126;2023-04-24T06:15:10;11.80;99.90
21944;DHT22;11136;48.778;9.126;2023-04-24T06:17:36;11.80;99.90
21944;DHT22;11136;48.778;9.126;2023-04-24T06:20:01;11.70;99.90
21944;DHT22;11136;48.778;9.126;2023-04-24T06:22:30;11.80;99.90
21944;DHT22;11136;48.778;9.126;2023-04-24T06:24:56;11.80;99.90
21944;DHT22;11136;48.778;9.126;2023-04-24T06:27:22;11.80;99.90
21944;DHT22;11136;48.778;9.126;2023-04-24T06:29:47;11.80;99.90
21944;DHT22;11136;48.778;9.126;2023-04-24T06:32:21;11.90;99.90
21944;DHT22;11136;48.778;9.126;2023-04-24T06:34:46;11.90;99.90
21944;DHT22;11136;48.778;9.126;2023-04-24T06:37:14;12.10;99.90
21944;DHT22;11136;48.778;9.126;2023-04-24T06:39:41;12.10;99.90
21944;DHT22;11136;48.778;9.126;2023-04-24T06:42:06;12.10;99.90
21944;DHT22;11136;48.778;9.126;2023-04-24T06:44:33;12.20;99.90
21944;DHT22;11136;48.778;9.126;2023-04-24T06:47:04;12.20;99.90
21944;DHT22;11136;48.778;9.126;2023-04-24T06:49:30;12.20;99.90
21944;DHT22;11136;48.778;9.126;2023-04-24T06:51:55;12.20;99.90
21944;DHT22;11136;48.778;9.126;2023-04-24T06:54:21;12.30;99.90
21944;DHT22;11136;48.778;9.126;2023-04-24T06:56:47;12.40;99.90
21944;DHT22;11136;48.778;9.126;2023-04-24T06:59:13;12.40;99.90
21944;DHT22;11136;48.778;9.126;2023-04-24T07:01:38;12.50;99.90
21944;DHT22;11136;48.778;9.126;2023-04-24T07:04:04;12.60;99.90
21944;DHT22;11136;48.778;9.126;2023-04-24T07:06:29;12.60;99.90
21944;DHT22;11136;48.778;9.126;2023-04-24T07:08:57;12.70;99.90
21944;DHT22;11136;48.778;9.126;2023-04-24T07:11:23;12.70;99.90
21944;DHT22;11136;48.778;9.126;2023-04-24T07:13:49;12.70;99.90
21944;DHT22;11136;48.778;9.126;2023-04-24T07:16:14;12.70;99.90
21944;DHT22;11136;48.778;9.126;2023-04-24T07:18:40;12.70;99.90
21944;DHT22;11136;48.778;9.126;2023-04-24T07:21:06;12.70;99.90
21944;DHT22;11136;48.778;9.126;2023-04-24T07:23:32;12.70;99.90
21944;DHT22;11136;48.778;9.126;2023-04-24T07:25:58;12.60;99.90
21944;DHT22;11136;48.778;9.126;2023-04-24T07:28:23;12.60;99.90
21944;DHT22;11136;48.778;9.126;2023-04-24T07:30:49;12.60;99.90
21944;DHT22;11136;48.778;9.126;2023-04-24T07:33:15;12.70;99.90
21944;DHT22;11136;48.778;9.126;2023-04-24T07:35:41;12.70;99.90
21944;DHT22;11136;48.778;9.126;2023-04-24T07:38:06;12.70;99.90
21944;DHT22;11136;48.778;9.126;2023-04-24T07:40:32;12.80;99.90
21944;DHT22;11136;48.778;9.126;2023-04-24T07:42:57;12.80;99.90
21944;DHT22;11136;48.778;9.126;2023-04-24T07:45:23;12.90;99.90
21944;DHT22;11136;48.778;9.126;2023-04-24T07:47:51;12.90;99.90
21944;DHT22;11136;48.778;9.126;2023-04-24T07:50:17;12.90;99.90
21944;DHT22;11136;48.778;9.126;2023-04-24T07:52:42;13.00;99.70
21944;DHT22;11136;48.778;9.126;2023-04-24T07:55:08;12.90;99.50
21944;DHT22;11136;48.778;9.126;2023-04-24T07:57:33;12.90;99.20
21944;DHT22;11136;48.778;9.126;2023-04-24T07:59:59;13.00;99.30
21944;DHT22;11136;48.778;9.126;2023-04-24T08:02:25;13.00;99.20
21944;DHT22;11136;48.778;9.126;2023-04-24T08:04:52;13.00;98.40
21944;DHT22;11136;48.778;9.126;2023-04-24T08:07:21;13.00;98.00
21944;DHT22;11136;48.778;9.126;2023-04-24T08:09:47;12.90;97.70
21944;DHT22;11136;48.778;9.126;2023-04-24T08:12:13;12.90;97.40
21944;DHT22;11136;48.778;9.126;2023-04-24T08:14:39;12.90;97.40
21944;DHT22;11136;48.778;9.126;2023-04-24T08:17:05;12.90;97.90
21944;DHT22;11136;48.778;9.126;2023-04-24T08:19:30;12.90;97.80
21944;DHT22;11136;48.778;9.126;2023-04-24T08:21:56;13.00;97.60
21944;DHT22;11136;48.778;9.126;2023-04-24T08:24:22;13.20;97.40
21944;DHT22;11136;48.778;9.126;2023-04-24T08:26:48;13.30;97.30
21944;DHT22;11136;48.778;9.126;2023-04-24T08:29:19;13.50;97.30
21944;DHT22;11136;48.778;9.126;2023-04-24T08:31:44;13.60;96.70
21944;DHT22;11136;48.778;9.126;2023-04-24T08:34:10;13.60;96.20
21944;DHT22;11136;48.778;9.126;2023-04-24T08:36:36;13.60;95.50
21944;DHT22;11136;48.778;9.126;2023-04-24T08:39:02;13.50;95.40
21944;DHT22;11136;48.778;9.126;2023-04-24T08:41:28;13.40;95.30
21944;DHT22;11136;48.778;9.126;2023-04-24T08:43:54;13.30;95.40
21944;DHT22;11136;48.778;9.126;2023-04-24T08:46:20;13.20;95.30
21944;DHT22;11136;48.778;9.126;2023-04-24T08:48:47;13.10;95.00
21944;DHT22;11136;48.778;9.126;2023-04-24T08:51:13;13.00;95.40
21944;DHT22;11136;48.778;9.126;2023-04-24T08:53:39;12.90;95.70
21944;DHT22;11136;48.778;9.126;2023-04-24T08:56:05;12.90;96.00
21944;DHT22;11136;48.778;9.126;2023-04-24T08:58:31;12.90;96.60
21944;DHT22;11136;48.778;9.126;2023-04-24T09:00:58;13.00;97.10
21944;DHT22;11136;48.778;9.126;2023-04-24T09:03:24;13.10;97.00
21944;DHT22;11136;48.778;9.126;2023-04-24T09:05:52;13.10;96.40
21944;DHT22;11136;48.778;9.126;2023-04-24T09:08:20;13.00;96.20
21944;DHT22;11136;48.778;9.126;2023-04-24T09:10:47;13.00;95.90
21944;DHT22;11136;48.778;9.126;2023-04-24T09:13:13;12.80;95.60
21944;DHT22;11136;48.778;9.126;2023-04-24T09:15:40;12.80;96.00
21944;DHT22;11136;48.778;9.126;2023-04-24T09:18:06;12.70;96.60
21944;DHT22;11136;48.778;9.126;2023-04-24T09:20:32;12.60;96.80
21944;DHT22;11136;48.778;9.126;2023-04-24T09:22:58;12.50;97.10
21944;DHT22;11136;48.778;9.126;2023-04-24T09:25:33;12.50;97.60
21944;DHT22;11136;48.778;9.126;2023-04-24T09:28:02;12.40;98.00
21944;DHT22;11136;48.778;9.126;2023-04-24T09:31:08;12.40;98.00
21944;DHT22;11136;48.778;9.126;2023-04-24T09:33:34;12.30;98.10
21944;DHT22;11136;48.778;9.126;2023-04-24T09:36:00;12.30;97.90
21944;DHT22;11136;48.778;9.126;2023-04-24T09:38:34;12.30;98.10
21944;DHT22;11136;48.778;9.126;2023-04-24T09:41:07;12.30;98.00
21944;DHT22;11136;48.778;9.126;2023-04-24T09:43:33;12.40;98.40
21944;DHT22;11136;48.778;9.126;2023-04-24T09:46:05;12.60;98.60
21944;DHT22;11136;48.778;9.126;2023-04-24T09:48:35;12.70;98.70
21944;DHT22;11136;48.778;9.126;2023-04-24T09:51:03;12.80;98.20
21944;DHT22;11136;48.778;9.126;2023-04-24T09:53:30;12.90;97.70
21944;DHT22;11136;48.778;9.126;2023-04-24T09:55:56;12.90;97.10
21944;DHT22;11136;48.778;9.126;2023-04-24T09:58:25;13.00;97.10
21944;DHT22;11136;48.778;9.126;2023-04-24T10:00:55;13.10;96.70
21944;DHT22;11136;48.778;9.126;2023-04-24T10:03:24;13.20;96.10
21944;DHT22;11136;48.778;9.126;2023-04-24T10:05:51;13.30;95.90
21944;DHT22;11136;48.778;9.126;2023-04-24T10:08:18;13.40;95.70
21944;DHT22;11136;48.778;9.126;2023-04-24T10:10:45;13.40;94.00
21944;DHT22;11136;48.778;9.126;2023-04-24T10:13:13;13.40;93.90
21944;DHT22;11136;48.778;9.126;2023-04-24T10:15:40;13.50;93.50
21944;DHT22;11136;48.778;9.126;2023-04-24T10:18:08;13.40;92.30
21944;DHT22;11136;48.778;9.126;2023-04-24T10:20:35;13.60;92.80
21944;DHT22;11136;48.778;9.126;2023-04-24T10:23:02;13.70;92.20
21944;DHT22;11136;48.778;9.126;2023-04-24T10:25:30;13.90;92.00
21944;DHT22;11136;48.778;9.126;2023-04-24T10:27:57;13.90;90.70
21944;DHT22;11136;48.778;9.126;2023-04-24T10:30:29;14.10;90.60
21944;DHT22;11136;48.778;9.126;2023-04-24T10:32:55;14.10;90.70
21944;DHT22;11136;48.778;9.126;2023-04-24T10:35:22;14.10;90.30
21944;DHT22;11136;48.778;9.126;2023-04-24T10:37:58;14.00;88.80
21944;DHT22;11136;48.778;9.126;2023-04-24T10:40:33;14.00;90.40
21944;DHT22;11136;48.778;9.126;2023-04-24T10:43:02;14.00;90.30
21944;DHT22;11136;48.778;9.126;2023-04-24T10:45:28;13.90;90.50
21944;DHT22;11136;48.778;9.126;2023-04-24T10:47:58;13.90;90.60
21944;DHT22;11136;48.778;9.126;2023-04-24T10:53:19;13.80;90.30
21944;DHT22;11136;48.778;9.126;2023-04-24T10:55:58;13.80;90.50
21944;DHT22;11136;48.778;9.126;2023-04-24T10:58:25;13.80;90.30
21944;DHT22;11136;48.778;9.126;2023-04-24T11:01:00;13.90;90.40
21944;DHT22;11136;48.778;9.126;2023-04-24T11:03:31;13.80;90.40
21944;DHT22;11136;48.778;9.126;2023-04-24T11:06:05;13.80;90.40
21944;DHT22;11136;48.778;9.126;2023-04-24T11:08:51;13.70;90.80
21944;DHT22;11136;48.778;9.126;2023-04-24T11:11:18;13.70;90.50
21944;DHT22;11136;48.778;9.126;2023-04-24T11:16:25;13.70;90.90
21944;DHT22;11136;48.778;9.126;2023-04-24T11:21:44;13.70;90.50
21944;DHT22;11136;48.778;9.126;2023-04-24T11:24:37;13.70;90.20
21944;DHT22;11136;48.778;9.126;2023-04-24T11:32:35;14.00;90.30
21944;DHT22;11136;48.778;9.126;2023-04-24T11:35:23;14.10;90.20
21944;DHT22;11136;48.778;9.126;2023-04-24T11:37:54;14.20;89.40
21944;DHT22;11136;48.778;9.126;2023-04-24T11:40:21;14.30;88.90
21944;DHT22;11136;48.778;9.126;2023-04-24T11:42:52;14.30;89.40
21944;DHT22;11136;48.778;9.126;2023-04-24T11:45:21;14.20;89.20
21944;DHT22;11136;48.778;9.126;2023-04-24T11:47:46;14.10;88.80
21944;DHT22;11136;48.778;9.126;2023-04-24T11:50:21;14.10;88.00
21944;DHT22;11136;48.778;9.126;2023-04-24T11:52:49;13.90;88.20
21944;DHT22;11136;48.778;9.126;2023-04-24T11:57:44;13.90;90.20
21944;DHT22;11136;48.778;9.126;2023-04-24T12:00:16;14.10;90.70
21944;DHT22;11136;48.778;9.126;2023-04-24T12:02:42;14.20;90.60
21944;DHT22;11136;48.778;9.126;2023-04-24T12:05:08;14.40;90.50
21944;DHT22;11136;48.778;9.126;2023-04-24T12:07:43;14.60;90.40
21944;DHT22;11136;48.778;9.126;2023-04-24T12:10:09;14.70;90.00
21944;DHT22;11136;48.778;9.126;2023-04-24T12:12:35;14.70;87.60
21944;DHT22;11136;48.778;9.126;2023-04-24T12:15:01;14.60;86.60
21944;DHT22;11136;48.778;9.126;2023-04-24T12:17:29;14.50;85.90
21944;DHT22;11136;48.778;9.126;2023-04-24T12:20:04;14.30;85.70
21944;DHT22;11136;48.778;9.126;2023-04-24T12:22:48;14.20;85.20
21944;DHT22;11136;48.778;9.126;2023-04-24T12:25:15;14.10;85.10
21944;DHT22;11136;48.778;9.126;2023-04-24T12:27:41;14.00;85.80
21944;DHT22;11136;48.778;9.126;2023-04-24T12:30:12;14.00;86.70
21944;DHT22;11136;48.778;9.126;2023-04-24T12:32:48;14.10;87.20
21944;DHT22;11136;48.778;9.126;2023-04-24T12:35:25;14.10;86.20
21944;DHT22;11136;48.778;9.126;2023-04-24T12:37:51;14.10;85.10
21944;DHT22;11136;48.778;9.126;2023-04-24T12:40:18;14.10;86.40
21944;DHT22;11136;48.778;9.126;2023-04-24T12:42:48;14.30;87.70
21944;DHT22;11136;48.778;9.126;2023-04-24T12:45:17;14.70;88.30
21944;DHT22;11136;48.778;9.126;2023-04-24T12:47:44;15.10;87.90
21944;DHT22;11136;48.778;9.126;2023-04-24T12:50:11;14.90;86.10
21944;DHT22;11136;48.778;9.126;2023-04-24T12:52:38;14.90;85.30
21944;DHT22;11136;48.778;9.126;2023-04-24T12:55:05;14.80;85.20
21944;DHT22;11136;48.778;9.126;2023-04-24T12:57:34;14.70;84.10
21944;DHT22;11136;48.778;9.126;2023-04-24T13:00:00;14.60;84.20
21944;DHT22;11136;48.778;9.126;2023-04-24T13:02:28;14.50;84.20
21944;DHT22;11136;48.778;9.126;2023-04-24T13:04:54;14.40;84.40
21944;DHT22;11136;48.778;9.126;2023-04-24T13:07:20;14.10;87.80
21944;DHT22;11136;48.778;9.126;2023-04-24T13:09:48;13.90;90.10
21944;DHT22;11136;48.778;9.126;2023-04-24T13:12:14;14.00;91.60
21944;DHT22;11136;48.778;9.126;2023-04-24T13:14:40;14.40;93.00
21944;DHT22;11136;48.778;9.126;2023-04-24T13:17:06;14.60;92.90
21944;DHT22;11136;48.778;9.126;2023-04-24T13:19:40;14.70;92.60
21944;DHT22;11136;48.778;9.126;2023-04-24T13:22:08;14.70;92.30
21944;DHT22;11136;48.778;9.126;2023-04-24T13:24:34;14.90;92.50
21944;DHT22;11136;48.778;9.126;2023-04-24T13:27:00;15.40;93.30
21944;DHT22;11136;48.778;9.126;2023-04-24T13:29:26;15.70;92.70
21944;DHT22;11136;48.778;9.126;2023-04-24T13:31:53;15.80;92.10
21944;DHT22;11136;48.778;9.126;2023-04-24T13:34:21;15.80;90.70
21944;DHT22;11136;48.778;9.126;2023-04-24T13:36:46;15.60;90.20
21944;DHT22;11136;48.778;9.126;2023-04-24T13:39:12;15.40;89.50
21944;DHT22;11136;48.778;9.126;2023-04-24T13:41:38;15.20;89.60
21944;DHT22;11136;48.778;9.126;2023-04-24T13:44:05;15.00;88.90
21944;DHT22;11136;48.778;9.126;2023-04-24T13:46:31;14.70;87.20
21944;DHT22;11136;48.778;9.126;2023-04-24T13:48:57;14.40;88.50
21944;DHT22;11136;48.778;9.126;2023-04-24T13:51:25;14.00;91.70
21944;DHT22;11136;48.778;9.126;2023-04-24T13:53:53;13.50;92.60
21944;DHT22;11136;48.778;9.126;2023-04-24T13:56:18;13.10;93.60
21944;DHT22;11136;48.778;9.126;2023-04-24T13:58:44;12.80;94.70
21944;DHT22;11136;48.778;9.126;2023-04-24T14:01:10;12.80;97.10
21944;DHT22;11136;48.778;9.126;2023-04-24T14:03:37;13.00;98.40
21944;DHT22;11136;48.778;9.126;2023-04-24T14:06:03;13.20;98.20
21944;DHT22;11136;48.778;9.126;2023-04-24T14:08:29;13.20;98.20
21944;DHT22;11136;48.778;9.126;2023-04-24T14:10:55;13.30;98.40
21944;DHT22;11136;48.778;9.126;2023-04-24T14:13:21;13.30;98.20
21944;DHT22;11136;48.778;9.126;2023-04-24T14:15:47;13.30;99.00
21944;DHT22;11136;48.778;9.126;2023-04-24T14:18:12;13.40;99.50
21944;DHT22;11136;48.778;9.126;2023-04-24T14:20:38;13.70;99.90
21944;DHT22;11136;48.778;9.126;2023-04-24T14:23:04;13.90;99.80
21944;DHT22;11136;48.778;9.126;2023-04-24T14:25:30;14.00;99.70
21944;DHT22;11136;48.778;9.126;2023-04-24T14:27:55;14.20;99.40
21944;DHT22;11136;48.778;9.126;2023-04-24T14:30:21;14.70;99.90
21944;DHT22;11136;48.778;9.126;2023-04-24T14:32:47;15.20;98.60
21944;DHT22;11136;48.778;9.126;2023-04-24T14:35:13;15.70;98.30
21944;DHT22;11136;48.778;9.126;2023-04-24T14:37:39;16.30;96.80
21944;DHT22;11136;48.778;9.126;2023-04-24T14:40:07;16.90;95.90
21944;DHT22;11136;48.778;9.126;2023-04-24T14:42:33;16.80;93.50
21944;DHT22;11136;48.778;9.126;2023-04-24T14:44:59;16.50;93.00
21944;DHT22;11136;48.778;9.126;2023-04-24T14:47:24;16.10;92.80
21944;DHT22;11136;48.778;9.126;2023-04-24T14:49:51;15.80;92.40
21944;DHT22;11136;48.778;9.126;2023-04-24T14:52:16;15.40;92.30
21944;DHT22;11136;48.778;9.126;2023-04-24T14:54:43;15.10;92.60
21944;DHT22;11136;48.778;9.126;2023-04-24T14:57:09;14.90;92.40
21944;DHT22;11136;48.778;9.126;2023-04-24T14:59:36;14.90;93.70
21944;DHT22;11136;48.778;9.126;2023-04-24T15:02:02;15.10;94.20
21944;DHT22;11136;48.778;9.126;2023-04-24T15:04:28;15.60;94.80
21944;DHT22;11136;48.778;9.126;2023-04-24T15:06:54;15.70;92.50
21944;DHT22;11136;48.778;9.126;2023-04-24T15:09:21;15.50;91.20
21944;DHT22;11136;48.778;9.126;2023-04-24T15:11:48;15.10;90.60
21944;DHT22;11136;48.778;9.126;2023-04-24T15:14:14;14.80;90.80
21944;DHT22;11136;48.778;9.126;2023-04-24T15:16:40;14.50;91.10
21944;DHT22;11136;48.778;9.126;2023-04-24T15:19:06;14.20;91.60
21944;DHT22;11136;48.778;9.126;2023-04-24T15:21:31;14.00;91.80
21944;DHT22;11136;48.778;9.126;2023-04-24T15:23:57;13.80;91.90
21944;DHT22;11136;48.778;9.126;2023-04-24T15:26:23;13.60;91.80
21944;DHT22;11136;48.778;9.126;2023-04-24T15:28:49;13.50;92.10
21944;DHT22;11136;48.778;9.126;2023-04-24T15:31:18;13.40;92.30
21944;DHT22;11136;48.778;9.126;2023-04-24T15:33:44;13.30;92.90
21944;DHT22;11136;48.778;9.126;2023-04-24T15:36:10;13.20;93.60
21944;DHT22;11136;48.778;9.126;2023-04-24T15:38:36;13.20;94.10
21944;DHT22;11136;48.778;9.126;2023-04-24T15:41:02;13.10;94.80
21944;DHT22;11136;48.778;9.126;2023-04-24T15:43:27;13.00;95.10
21944;DHT22;11136;48.778;9.126;2023-04-24T15:45:56;12.90;95.20